Terminal Aerodrome Forecast
Issued by NWS St Louis, MO

Home | Current Version | Previous Version | Text Only | Print | Product List | Glossary On
Versions: 1 2 3 4 5 6 7 8 9 10 11 12 13
837
FTUS43 KLSX 301120
TAFCOU
TAF
KCOU 301120Z 3012/0112 25006KT P6SM SKC
     FM301300 26008KT P6SM BKN025
     FM301700 26012G18KT P6SM BKN040
     FM010000 27008KT P6SM BKN045
     FM010300 26007KT P6SM SCT250=

USA.gov is the U.S. government's official web portal to all federal, state and local government web resources and services.